createdAt,value
2023-03-26T00:01:24.272Z,73.20
2023-03-26T00:03:57.428Z,73.20
2023-03-26T00:06:27.049Z,73.30
2023-03-26T00:08:55.587Z,73.40
2023-03-26T00:11:24.018Z,73.40
2023-03-26T00:13:53.789Z,73.40
2023-03-26T00:16:21.180Z,73.50
2023-03-26T00:18:49.096Z,73.50
2023-03-26T00:21:18.522Z,73.40
2023-03-26T00:23:46.316Z,73.50
2023-03-26T00:26:13.523Z,73.50
2023-03-26T00:28:42.505Z,73.60
2023-03-26T00:31:12.351Z,73.60
2023-03-26T00:33:40.828Z,74.40
2023-03-26T00:36:12.071Z,73.80
2023-03-26T00:38:39.552Z,73.80
2023-03-26T00:41:17.813Z,73.80
2023-03-26T00:43:46.624Z,73.80
2023-03-26T00:46:13.987Z,73.80
2023-03-26T00:48:45.789Z,73.80
2023-03-26T00:51:15.538Z,73.80
2023-03-26T00:53:44.643Z,73.80
2023-03-26T00:56:11.928Z,73.80
2023-03-26T00:58:39.224Z,73.70
2023-03-26T01:01:15.379Z,73.80
2023-03-26T01:03:53.153Z,73.70
2023-03-26T01:06:35.863Z,73.70
2023-03-26T01:09:11.953Z,73.70
2023-03-26T01:11:38.835Z,73.80
2023-03-26T01:14:16.563Z,73.70
2023-03-26T01:16:52.256Z,73.80
2023-03-26T01:19:40.468Z,73.80
2023-03-26T01:22:12.219Z,73.80
2023-03-26T01:24:40.046Z,73.90
2023-03-26T01:27:41.193Z,74.00
2023-03-26T01:30:17.240Z,74.00
2023-03-26T01:33:07.691Z,73.90
2023-03-26T01:35:47.405Z,74.00
2023-03-26T01:38:31.155Z,74.00
2023-03-26T01:41:04.898Z,74.10
2023-03-26T01:43:36.834Z,74.10
2023-03-26T01:46:08.052Z,74.00
2023-03-26T01:48:38.662Z,74.10
2023-03-26T01:51:07.762Z,74.10
2023-03-26T01:53:40.707Z,74.10
2023-03-26T01:56:23.325Z,74.00
2023-03-26T01:59:16.749Z,74.10
2023-03-26T02:02:05.383Z,74.10
2023-03-26T02:04:33.255Z,74.00
2023-03-26T02:07:09.422Z,74.00
2023-03-26T02:09:50.548Z,74.00
2023-03-26T02:12:19.378Z,73.90
2023-03-26T02:14:46.628Z,73.90
2023-03-26T02:17:13.599Z,73.90
2023-03-26T02:19:43.542Z,73.90
2023-03-26T02:22:15.831Z,73.90
2023-03-26T02:24:43.699Z,74.50
2023-03-26T02:27:12.423Z,74.00
2023-03-26T02:29:40.641Z,73.80
2023-03-26T02:32:09.304Z,73.80
2023-03-26T02:34:37.056Z,73.80
2023-03-26T02:37:03.902Z,73.80
2023-03-26T02:39:32.480Z,73.80
2023-03-26T02:41:59.480Z,73.70
2023-03-26T02:44:27.277Z,73.60
2023-03-26T02:46:54.378Z,73.60
2023-03-26T02:49:21.426Z,73.60
2023-03-26T02:51:48.594Z,73.60
2023-03-26T02:54:17.023Z,73.70
2023-03-26T02:56:43.934Z,73.60
2023-03-26T02:59:10.878Z,73.50
2023-03-26T03:01:42.929Z,73.50
2023-03-26T03:04:11.280Z,73.60
2023-03-26T03:06:40.552Z,73.50
2023-03-26T03:09:08.685Z,73.40
2023-03-26T03:11:36.184Z,73.40
2023-03-26T03:14:03.611Z,73.40
2023-03-26T03:16:31.488Z,73.40
2023-03-26T03:18:58.521Z,73.30
2023-03-26T03:21:27.970Z,73.30
2023-03-26T03:24:00.179Z,73.20
2023-03-26T03:26:29.988Z,73.20
2023-03-26T03:28:58.392Z,73.20
2023-03-26T03:31:26.563Z,73.10
2023-03-26T03:33:53.605Z,73.10
2023-03-26T03:36:22.804Z,73.10
2023-03-26T03:38:50.787Z,73.10
2023-03-26T03:41:18.809Z,73.10
2023-03-26T03:43:46.353Z,73.00
2023-03-26T03:46:13.611Z,73.10
2023-03-26T03:48:40.717Z,73.00
2023-03-26T03:51:07.624Z,73.00
2023-03-26T03:53:37.360Z,73.00
2023-03-26T03:56:10.237Z,73.00
2023-03-26T03:58:37.487Z,73.00
2023-03-26T04:01:04.733Z,73.00
2023-03-26T04:03:33.814Z,72.90
2023-03-26T04:06:01.523Z,73.00
2023-03-26T04:08:28.405Z,73.00
2023-03-26T04:10:55.369Z,73.00
2023-03-26T04:13:22.664Z,73.00
2023-03-26T04:15:49.601Z,73.00
2023-03-26T04:18:16.496Z,73.00
2023-03-26T04:20:47.663Z,72.90
2023-03-26T04:23:15.715Z,73.00
2023-03-26T04:25:49.119Z,72.90
2023-03-26T04:28:43.726Z,72.90
2023-03-26T04:31:15.854Z,72.90
2023-03-26T04:33:48.688Z,72.90
2023-03-26T04:36:17.362Z,72.90
2023-03-26T04:38:49.076Z,72.90
2023-03-26T04:41:16.278Z,72.80
2023-03-26T04:43:47.457Z,72.80
2023-03-26T04:46:14.880Z,72.80
2023-03-26T04:48:41.800Z,72.90
2023-03-26T04:51:09.991Z,73.00
2023-03-26T04:53:37.212Z,73.20
2023-03-26T04:56:27.056Z,73.50
2023-03-26T04:58:59.902Z,73.10
2023-03-26T05:01:30.793Z,73.00
2023-03-26T05:03:58.826Z,73.40
2023-03-26T05:06:28.609Z,74.00
2023-03-26T05:08:55.549Z,74.10
2023-03-26T05:11:22.474Z,74.40
2023-03-26T05:13:49.377Z,75.10
2023-03-26T05:16:16.371Z,74.40
2023-03-26T05:18:43.308Z,74.50
2023-03-26T05:21:11.222Z,73.70
2023-03-26T05:23:38.381Z,73.80
2023-03-26T05:26:07.768Z,73.60
2023-03-26T05:28:34.833Z,73.50
2023-03-26T05:31:02.708Z,73.40
2023-03-26T05:33:31.090Z,73.20
2023-03-26T05:36:13.323Z,73.00
2023-03-26T05:38:40.654Z,73.00
2023-03-26T05:41:09.961Z,73.10
2023-03-26T05:43:36.984Z,73.20
2023-03-26T05:46:05.529Z,73.50
2023-03-26T05:48:32.491Z,73.60
2023-03-26T05:50:59.832Z,73.60
2023-03-26T05:53:27.631Z,74.00
2023-03-26T05:56:00.873Z,74.70
2023-03-26T05:58:32.917Z,75.40
2023-03-26T06:01:09.897Z,75.40
2023-03-26T06:03:39.554Z,76.20
2023-03-26T06:06:15.671Z,75.00
2023-03-26T06:08:48.920Z,75.70
2023-03-26T06:11:30.033Z,76.80
2023-03-26T06:13:56.945Z,75.50
2023-03-26T06:16:26.655Z,76.50
2023-03-26T06:18:56.663Z,77.30
2023-03-26T06:21:25.222Z,75.40
2023-03-26T06:23:53.097Z,77.40
2023-03-26T06:26:20.820Z,75.70
2023-03-26T06:28:47.883Z,78.30
2023-03-26T06:31:14.961Z,77.60
2023-03-26T06:33:42.845Z,80.50
2023-03-26T06:36:11.447Z,78.70
2023-03-26T06:38:39.382Z,79.00
2023-03-26T06:41:06.912Z,80.30
2023-03-26T06:43:34.004Z,79.40
2023-03-26T06:46:04.621Z,80.80
2023-03-26T06:48:31.812Z,78.10
2023-03-26T06:50:58.837Z,77.40
2023-03-26T06:53:26.085Z,79.30
2023-03-26T06:55:54.337Z,79.00
2023-03-26T06:58:22.411Z,79.10
2023-03-26T07:00:52.773Z,79.30
2023-03-26T07:03:19.741Z,79.50
2023-03-26T07:05:47.845Z,81.70
2023-03-26T07:08:15.015Z,80.60
2023-03-26T07:10:42.485Z,81.10
2023-03-26T07:13:09.453Z,82.00
2023-03-26T07:15:36.406Z,82.60
2023-03-26T07:18:03.340Z,82.40
2023-03-26T07:20:30.354Z,80.40
2023-03-26T07:22:57.579Z,81.60
2023-03-26T07:25:25.204Z,81.80
2023-03-26T07:28:13.470Z,80.60
2023-03-26T07:31:14.136Z,81.10
2023-03-26T07:33:52.132Z,82.80
2023-03-26T07:36:57.789Z,82.30
2023-03-26T07:39:56.926Z,80.50
2023-03-26T07:42:46.985Z,78.50
2023-03-26T07:45:20.059Z,78.70
2023-03-26T07:47:49.925Z,77.80
2023-03-26T07:50:19.288Z,78.90
2023-03-26T07:52:46.577Z,78.00
2023-03-26T07:55:15.582Z,77.60
2023-03-26T07:58:01.835Z,78.70
2023-03-26T08:00:28.572Z,76.40
2023-03-26T08:03:19.083Z,77.60
2023-03-26T08:06:01.957Z,77.10
2023-03-26T08:09:00.268Z,75.50
2023-03-26T08:11:39.260Z,77.50
2023-03-26T08:14:33.542Z,76.90
2023-03-26T08:17:31.683Z,76.00
2023-03-26T08:20:11.026Z,75.50
2023-03-26T08:22:42.832Z,76.60
2023-03-26T08:25:33.224Z,78.10
2023-03-26T08:28:06.466Z,77.90
2023-03-26T08:30:33.473Z,77.00
2023-03-26T08:33:19.254Z,79.00
2023-03-26T08:35:47.223Z,77.30
2023-03-26T08:38:16.520Z,79.80
2023-03-26T08:40:55.656Z,79.70
2023-03-26T08:43:46.357Z,78.80
2023-03-26T08:46:43.335Z,81.90
2023-03-26T08:49:48.247Z,79.30
2023-03-26T08:52:35.564Z,84.10
2023-03-26T08:55:20.913Z,82.20
2023-03-26T08:58:02.960Z,85.10
2023-03-26T09:00:41.871Z,83.70
2023-03-26T09:03:38.541Z,86.40
2023-03-26T09:06:08.051Z,84.50
2023-03-26T09:08:59.221Z,85.20
2023-03-26T09:11:45.230Z,85.00
2023-03-26T09:14:15.087Z,85.30
2023-03-26T09:17:19.503Z,86.50
2023-03-26T09:20:05.316Z,84.30
2023-03-26T09:22:38.597Z,87.80
2023-03-26T09:25:15.110Z,89.20
2023-03-26T09:28:03.751Z,88.50
2023-03-26T09:30:48.164Z,88.10
2023-03-26T09:33:52.296Z,85.80
2023-03-26T09:36:41.706Z,84.30
2023-03-26T09:39:09.875Z,84.10
2023-03-26T09:42:05.006Z,80.60
2023-03-26T09:44:50.724Z,79.60
2023-03-26T09:47:22.233Z,78.70
2023-03-26T09:49:56.980Z,79.20
2023-03-26T09:52:43.868Z,79.80
2023-03-26T09:55:32.361Z,79.20
2023-03-26T09:58:26.482Z,77.90
2023-03-26T10:01:07.651Z,76.70
2023-03-26T10:03:59.053Z,75.90
2023-03-26T10:06:59.508Z,75.70
2023-03-26T10:09:35.022Z,74.40
2023-03-26T10:12:07.616Z,74.10
2023-03-26T10:14:55.101Z,73.90
2023-03-26T10:17:40.059Z,73.00
2023-03-26T10:20:27.847Z,72.70
2023-03-26T10:23:14.652Z,72.30
2023-03-26T10:26:04.533Z,71.50
2023-03-26T10:29:14.797Z,71.40
2023-03-26T10:32:04.330Z,72.20
2023-03-26T10:34:40.309Z,73.40
2023-03-26T10:37:16.344Z,73.30
2023-03-26T10:40:02.298Z,73.60
2023-03-26T10:42:51.055Z,73.90
2023-03-26T10:45:46.664Z,74.60
2023-03-26T10:48:48.091Z,75.90
2023-03-26T10:51:36.471Z,75.60
2023-03-26T10:54:23.842Z,76.20
2023-03-26T10:56:52.417Z,76.20
2023-03-26T10:59:20.054Z,76.10
2023-03-26T11:02:29.073Z,76.30
2023-03-26T11:05:14.529Z,76.70
2023-03-26T11:07:51.791Z,77.70
2023-03-26T11:10:24.951Z,76.70
2023-03-26T11:13:16.920Z,77.30
2023-03-26T11:16:11.347Z,77.20
2023-03-26T11:19:12.502Z,77.60
2023-03-26T11:21:43.120Z,77.80
2023-03-26T11:24:32.019Z,78.80
2023-03-26T11:27:15.208Z,78.70
2023-03-26T11:29:56.940Z,78.20
2023-03-26T11:32:39.309Z,77.50
2023-03-26T11:35:39.551Z,76.70
2023-03-26T11:38:37.574Z,75.70
2023-03-26T11:41:12.775Z,75.20
2023-03-26T11:43:41.400Z,75.30
2023-03-26T11:46:13.229Z,75.40
2023-03-26T11:48:44.405Z,75.10
2023-03-26T11:51:18.551Z,75.00
2023-03-26T11:53:48.218Z,75.00
2023-03-26T11:56:35.209Z,75.30
2023-03-26T11:59:06.361Z,75.60
2023-03-26T12:01:56.652Z,75.40
2023-03-26T12:04:35.438Z,75.40
2023-03-26T12:07:28.373Z,75.90
2023-03-26T12:10:17.848Z,75.70
2023-03-26T12:12:48.057Z,75.90
2023-03-26T12:15:20.923Z,75.90
2023-03-26T12:17:53.782Z,75.80
2023-03-26T12:20:26.961Z,76.20
2023-03-26T12:22:59.589Z,76.30
2023-03-26T12:25:34.755Z,76.20
2023-03-26T12:28:23.421Z,76.60
2023-03-26T12:31:02.371Z,76.40
2023-03-26T12:33:34.787Z,76.50
2023-03-26T12:36:33.457Z,76.40
2023-03-26T12:39:16.571Z,76.40
2023-03-26T12:44:43.383Z,76.80
2023-03-26T12:44:59.653Z,76.00
2023-03-26T12:48:00.155Z,75.50
2023-03-26T12:50:34.230Z,75.90
2023-03-26T12:53:19.239Z,75.90
2023-03-26T12:56:19.991Z,75.90
2023-03-26T12:59:02.320Z,76.20
2023-03-26T13:01:29.302Z,75.80
2023-03-26T13:04:08.592Z,76.00
2023-03-26T13:07:00.593Z,76.10
2023-03-26T13:09:55.309Z,75.20
2023-03-26T13:12:34.080Z,75.60
2023-03-26T13:15:09.714Z,75.70
2023-03-26T13:17:46.077Z,76.10
2023-03-26T13:20:34.263Z,75.70
2023-03-26T13:23:19.353Z,76.00
2023-03-26T13:26:04.216Z,76.60
2023-03-26T13:28:58.347Z,76.30
2023-03-26T13:31:34.231Z,76.50
2023-03-26T13:34:30.059Z,76.80
2023-03-26T13:37:04.296Z,76.00
2023-03-26T13:39:39.118Z,76.10
2023-03-26T13:42:37.959Z,76.20
2023-03-26T13:45:20.378Z,76.80
2023-03-26T13:47:51.425Z,76.50
2023-03-26T13:50:26.932Z,76.80
2023-03-26T13:53:01.107Z,76.80
2023-03-26T13:55:41.087Z,76.90
2023-03-26T13:58:34.404Z,77.10
2023-03-26T14:01:08.160Z,76.80
2023-03-26T14:03:50.234Z,77.00
2023-03-26T14:06:42.468Z,77.40
2023-03-26T14:09:25.964Z,77.40
2023-03-26T14:11:56.811Z,75.40
2023-03-26T14:14:57.532Z,74.60
2023-03-26T14:17:31.456Z,73.30
2023-03-26T14:20:17.280Z,72.70
2023-03-26T14:23:17.349Z,72.30
2023-03-26T14:25:57.000Z,73.10
2023-03-26T14:28:38.632Z,72.90
2023-03-26T14:31:23.722Z,72.80
2023-03-26T14:33:59.962Z,73.00
2023-03-26T14:36:35.661Z,73.00
2023-03-26T14:39:08.555Z,73.00
2023-03-26T14:41:58.544Z,73.00
2023-03-26T14:44:48.230Z,73.10
2023-03-26T14:47:20.655Z,73.00
2023-03-26T14:50:03.566Z,72.80
2023-03-26T14:52:51.926Z,72.90
2023-03-26T14:55:48.591Z,69.50
2023-03-26T14:58:53.175Z,67.10
2023-03-26T15:01:43.847Z,65.50
2023-03-26T15:04:49.780Z,64.90
2023-03-26T15:07:26.134Z,64.50
2023-03-26T15:10:08.287Z,66.80
2023-03-26T15:13:16.077Z,67.00
2023-03-26T15:16:01.496Z,66.90
2023-03-26T15:18:51.290Z,67.60
2023-03-26T15:21:53.187Z,68.50
2023-03-26T15:24:41.809Z,68.70
2023-03-26T15:27:45.371Z,69.10
2023-03-26T15:30:15.261Z,69.90
2023-03-26T15:32:44.915Z,69.90
2023-03-26T15:35:30.361Z,70.20
2023-03-26T15:38:08.130Z,70.30
2023-03-26T15:40:51.920Z,70.50
2023-03-26T15:43:28.138Z,70.30
2023-03-26T15:46:50.646Z,70.20
2023-03-26T15:49:24.415Z,70.70
2023-03-26T15:52:26.587Z,70.90
2023-03-26T15:55:17.113Z,71.30
2023-03-26T15:57:57.813Z,71.40
2023-03-26T16:00:29.114Z,71.30
2023-03-26T16:03:12.133Z,71.70
2023-03-26T16:06:18.822Z,72.10
2023-03-26T16:09:07.979Z,72.00
2023-03-26T16:11:49.760Z,72.30
2023-03-26T16:14:47.481Z,71.90
2023-03-26T16:17:21.248Z,72.20
2023-03-26T16:19:50.273Z,72.00
2023-03-26T16:22:42.748Z,72.40
2023-03-26T16:25:27.509Z,72.20
2023-03-26T16:28:40.567Z,72.10
2023-03-26T16:31:35.140Z,71.70
2023-03-26T16:34:08.376Z,72.10
2023-03-26T16:36:37.667Z,72.20
2023-03-26T16:39:05.040Z,72.40
2023-03-26T16:42:06.490Z,72.10
2023-03-26T16:44:52.882Z,72.10
2023-03-26T16:47:29.895Z,72.10
2023-03-26T16:50:12.148Z,72.70
2023-03-26T16:52:54.169Z,72.10
2023-03-26T16:55:39.821Z,72.30
2023-03-26T16:58:45.499Z,72.20
2023-03-26T17:01:46.504Z,72.30
2023-03-26T17:04:17.322Z,72.20
2023-03-26T17:06:53.851Z,72.60
2023-03-26T17:09:34.019Z,73.30
2023-03-26T17:12:18.724Z,73.20
2023-03-26T17:15:06.024Z,73.40
2023-03-26T17:17:57.434Z,73.40
2023-03-26T17:20:32.990Z,73.40
2023-03-26T17:23:13.517Z,73.50
2023-03-26T17:26:09.190Z,73.10
2023-03-26T17:28:50.501Z,72.80
2023-03-26T17:31:26.848Z,71.90
2023-03-26T17:33:54.528Z,71.40
2023-03-26T17:36:40.160Z,71.60
2023-03-26T17:39:43.571Z,71.80
2023-03-26T17:42:26.004Z,68.90
2023-03-26T17:44:58.324Z,69.40
2023-03-26T17:47:31.320Z,69.50
2023-03-26T17:50:23.922Z,69.60
2023-03-26T17:53:16.880Z,69.60
2023-03-26T17:55:45.789Z,69.80
2023-03-26T17:58:25.115Z,69.90
2023-03-26T18:01:17.172Z,70.00
2023-03-26T18:03:49.723Z,70.00
2023-03-26T18:06:42.087Z,70.10
2023-03-26T18:09:59.859Z,70.10
2023-03-26T18:12:50.654Z,70.20
2023-03-26T18:15:30.149Z,70.20
2023-03-26T18:18:09.736Z,70.30
2023-03-26T18:20:37.852Z,70.30
2023-03-26T18:23:25.318Z,70.30
2023-03-26T18:26:10.008Z,70.40
2023-03-26T18:28:42.680Z,71.10
2023-03-26T18:31:26.497Z,70.50
2023-03-26T18:34:03.250Z,69.50
2023-03-26T18:36:31.443Z,69.80
2023-03-26T18:39:04.298Z,69.70
2023-03-26T18:41:34.330Z,69.70
2023-03-26T18:44:03.010Z,69.60
2023-03-26T18:46:30.374Z,69.70
2023-03-26T18:49:00.037Z,69.70
2023-03-26T18:51:28.080Z,69.80
2023-03-26T18:54:00.026Z,69.80
2023-03-26T18:56:37.152Z,70.50
2023-03-26T18:59:07.013Z,69.90
2023-03-26T19:01:37.691Z,69.90
2023-03-26T19:04:07.012Z,70.00
2023-03-26T19:06:38.512Z,70.00
2023-03-26T19:09:19.641Z,70.20
2023-03-26T19:11:57.205Z,70.20
2023-03-26T19:14:28.685Z,70.30
2023-03-26T19:17:02.833Z,70.40
2023-03-26T19:19:33.772Z,70.40
2023-03-26T19:22:01.704Z,70.50
2023-03-26T19:24:28.796Z,70.60
2023-03-26T19:26:56.411Z,70.70
2023-03-26T19:29:31.547Z,70.80
2023-03-26T19:32:15.403Z,70.90
2023-03-26T19:34:45.935Z,71.00
2023-03-26T19:37:18.918Z,70.20
2023-03-26T19:39:51.886Z,70.20
2023-03-26T19:42:26.877Z,70.20
2023-03-26T19:45:21.788Z,70.10
2023-03-26T19:48:00.144Z,70.90
2023-03-26T19:50:36.630Z,70.30
2023-03-26T19:53:19.251Z,70.50
2023-03-26T19:56:21.377Z,70.70
2023-03-26T19:58:50.326Z,70.80
2023-03-26T20:01:23.951Z,71.00
2023-03-26T20:03:57.946Z,71.20
2023-03-26T20:06:41.525Z,71.30
2023-03-26T20:09:12.194Z,71.40
2023-03-26T20:11:39.868Z,71.50
2023-03-26T20:14:16.142Z,71.60
2023-03-26T20:16:45.209Z,71.70
2023-03-26T20:19:14.313Z,71.70
2023-03-26T20:21:43.472Z,71.70
2023-03-26T20:24:16.253Z,71.70
2023-03-26T20:26:44.230Z,71.70
2023-03-26T20:29:11.802Z,71.80
2023-03-26T20:31:41.653Z,71.80
2023-03-26T20:34:17.999Z,71.90
2023-03-26T20:36:55.387Z,71.90
2023-03-26T20:39:24.466Z,71.50
2023-03-26T20:41:53.444Z,70.80
2023-03-26T20:44:22.039Z,71.00
2023-03-26T20:46:49.933Z,70.90
2023-03-26T20:49:18.197Z,70.80
2023-03-26T20:51:46.806Z,70.90
2023-03-26T20:54:29.767Z,70.90
2023-03-26T20:56:58.143Z,71.00
2023-03-26T20:59:28.278Z,71.10
2023-03-26T21:01:57.783Z,71.20
2023-03-26T21:04:27.048Z,71.20
2023-03-26T21:07:00.347Z,71.20
2023-03-26T21:09:34.343Z,71.30
2023-03-26T21:12:17.031Z,71.30
2023-03-26T21:14:44.416Z,71.40
2023-03-26T21:17:16.677Z,71.50
2023-03-26T21:19:44.585Z,71.60
2023-03-26T21:22:14.732Z,71.70
2023-03-26T21:24:44.346Z,71.80
2023-03-26T21:27:39.520Z,71.90
2023-03-26T21:35:09.918Z,97.00
2023-03-26T21:37:37.668Z,97.90
2023-03-26T21:40:16.708Z,96.50
2023-03-26T21:42:49.363Z,97.00
2023-03-26T21:45:18.290Z,96.20
2023-03-26T21:47:46.554Z,96.60
2023-03-26T21:50:17.839Z,96.30
2023-03-26T21:52:48.499Z,97.30
2023-03-26T21:55:18.014Z,96.90
2023-03-26T21:58:04.191Z,96.60
2023-03-26T22:00:49.781Z,95.90
2023-03-26T22:03:34.318Z,95.90
2023-03-26T22:06:13.614Z,95.90
2023-03-26T22:08:42.142Z,95.90
2023-03-26T22:11:12.363Z,96.70
2023-03-26T22:13:39.338Z,96.40
2023-03-26T22:16:08.246Z,96.70
2023-03-26T22:18:35.477Z,96.90
2023-03-26T22:21:02.687Z,97.00
2023-03-26T22:23:36.686Z,88.80
2023-03-26T22:26:04.728Z,86.40
2023-03-26T22:28:32.034Z,86.70
2023-03-26T22:30:59.741Z,96.70
2023-03-26T22:33:27.059Z,97.00
2023-03-26T22:35:56.053Z,97.20
2023-03-26T22:38:23.096Z,96.90
2023-03-26T22:40:57.532Z,97.00
2023-03-26T22:43:24.935Z,96.40
2023-03-26T22:45:53.781Z,96.70
2023-03-26T22:48:23.955Z,95.70
2023-03-26T22:51:11.379Z,95.40
2023-03-26T22:53:38.480Z,96.10
2023-03-26T22:56:06.040Z,95.90
2023-03-26T22:58:34.151Z,95.50
2023-03-26T23:01:08.437Z,95.50
2023-03-26T23:03:36.924Z,95.80
2023-03-26T23:06:06.955Z,94.40
2023-03-26T23:08:37.418Z,95.40
2023-03-26T23:11:13.681Z,94.80
2023-03-26T23:13:41.864Z,95.00
2023-03-26T23:16:10.206Z,95.80
2023-03-26T23:18:38.357Z,95.90
2023-03-26T23:21:11.744Z,87.50
2023-03-26T23:23:42.526Z,86.80
2023-03-26T23:26:09.647Z,94.40
2023-03-26T23:28:36.824Z,95.60
2023-03-26T23:31:06.406Z,95.60
2023-03-26T23:33:36.370Z,96.40
2023-03-26T23:36:09.137Z,93.70
2023-03-26T23:38:43.563Z,85.90
2023-03-26T23:41:15.751Z,85.70
2023-03-26T23:43:53.675Z,83.10
2023-03-26T23:46:23.597Z,83.00
2023-03-26T23:48:52.914Z,83.40
2023-03-26T23:51:20.624Z,84.00
2023-03-26T23:53:49.304Z,83.50
2023-03-26T23:56:17.086Z,83.70
2023-03-26T23:58:44.143Z,82.90
